Time;durP1;ratioP1;P1;durP2;ratioP2;P2;SDS_P1;SDS_P2;PMS_P1;PMS_P2;Temp;Humidity;BMP_temperature;BMP_pressure;BME280_temperature;BME280_humidity;BME280_pressure;Samples;Min_cycle;Max_cycle;Signal;HPM_P1;HPM_P2
2021/01/08 00:01:54;;;;;;;46.10;10.77;;;;;;;7.94;100.00;101522.34;5045195;28;20204;-73
2021/01/08 00:04:21;;;;;;;46.27;11.97;;;;;;;7.90;100.00;101524.22;5050102;28;20403;-72
2021/01/08 00:06:47;;;;;;;44.20;6.33;;;;;;;7.95;100.00;101519.66;5050290;28;20149;-75
2021/01/08 00:09:13;;;;;;;43.70;7.73;;;;;;;7.97;100.00;101522.19;5032758;28;20408;-71
2021/01/08 00:11:38;;;;;;;46.70;6.03;;;;;;;7.92;100.00;101522.38;5050656;28;20469;-74
2021/01/08 00:14:04;;;;;;;44.20;5.47;;;;;;;7.90;100.00;101512.91;5057328;28;20785;-74
2021/01/08 00:16:35;;;;;;;47.70;7.53;;;;;;;7.89;100.00;101516.44;5050308;28;20619;-75
2021/01/08 00:19:03;;;;;;;46.40;11.83;;;;;;;7.84;100.00;101518.41;5066833;28;20522;-69
2021/01/08 00:21:39;;;;;;;46.80;13.40;;;;;;;7.89;100.00;101519.06;5070397;28;20536;-72
2021/01/08 00:24:07;;;;;;;45.17;11.90;;;;;;;7.91;100.00;101522.47;5057608;28;20403;-75
2021/01/08 00:26:33;;;;;;;44.67;13.23;;;;;;;7.88;100.00;101525.22;5052243;28;20442;-72
2021/01/08 00:28:58;;;;;;;43.80;6.73;;;;;;;7.88;100.00;101519.97;5062239;28;20406;-73
2021/01/08 00:31:24;;;;;;;46.27;7.97;;;;;;;7.75;100.00;101511.81;5063430;28;20631;-75
2021/01/08 00:33:50;;;;;;;45.47;12.40;;;;;;;7.70;100.00;101511.97;5051047;28;20554;-71
2021/01/08 00:36:15;;;;;;;44.30;12.10;;;;;;;7.79;100.00;101505.53;5050014;28;20164;-76
2021/01/08 00:38:41;;;;;;;45.60;13.33;;;;;;;7.82;100.00;101512.41;5062116;28;20677;-71
2021/01/08 00:41:06;;;;;;;45.60;12.13;;;;;;;7.74;100.00;101526.66;5060649;28;20162;-70
2021/01/08 00:43:32;;;;;;;46.00;13.20;;;;;;;7.81;100.00;101529.00;5067513;28;20261;-75
2021/01/08 00:45:57;;;;;;;48.67;11.97;;;;;;;7.70;100.00;101529.44;5066881;28;20529;-74
2021/01/08 00:48:23;;;;;;;48.17;13.37;;;;;;;7.66;100.00;101533.13;5050832;28;20149;-73
2021/01/08 00:50:48;;;;;;;45.53;14.10;;;;;;;7.62;100.00;101537.59;5053706;28;20173;-69
2021/01/08 00:53:14;;;;;;;43.90;11.37;;;;;;;7.46;100.00;101540.00;5054595;28;20666;-69
2021/01/08 00:55:39;;;;;;;46.60;14.97;;;;;;;7.48;100.00;101545.16;5045009;28;20219;-72
2021/01/08 00:58:05;;;;;;;44.67;12.97;;;;;;;7.53;100.00;101545.00;5057067;28;20184;-69
2021/01/08 01:00:30;;;;;;;43.57;11.50;;;;;;;7.58;100.00;101540.44;5060590;28;20243;-78
2021/01/08 01:02:56;;;;;;;47.00;14.07;;;;;;;7.69;100.00;101532.97;5064983;28;20154;-70
2021/01/08 01:05:21;;;;;;;44.50;12.07;;;;;;;7.58;100.00;101524.75;5053518;28;20223;-77
2021/01/08 01:07:49;;;;;;;45.40;12.37;;;;;;;7.49;100.00;101510.28;5064938;28;20156;-72
2021/01/08 01:10:14;;;;;;;44.20;11.00;;;;;;;7.51;100.00;101508.47;5073640;28;20670;-71
2021/01/08 01:12:40;;;;;;;47.03;12.67;;;;;;;7.48;100.00;101517.28;5061103;28;20497;-73
2021/01/08 01:15:06;;;;;;;43.70;11.80;;;;;;;7.38;100.00;101508.09;5073459;28;20196;-77
2021/01/08 01:17:31;;;;;;;43.90;12.27;;;;;;;7.43;100.00;101500.94;5064112;28;20161;-75
2021/01/08 01:19:57;;;;;;;43.90;11.37;;;;;;;7.29;100.00;101502.41;5053547;28;20450;-77
2021/01/08 01:22:22;;;;;;;44.10;13.40;;;;;;;7.34;100.00;101490.88;5053535;28;20149;-78
2021/01/08 01:24:48;;;;;;;42.77;15.90;;;;;;;7.37;100.00;101488.09;5053351;28;20574;-75
2021/01/08 01:27:13;;;;;;;40.97;8.77;;;;;;;7.41;100.00;101489.69;5054085;28;20213;-73
2021/01/08 01:29:39;;;;;;;44.50;11.93;;;;;;;7.40;100.00;101485.34;5061208;28;20164;-72
2021/01/08 01:32:05;;;;;;;43.43;10.80;;;;;;;7.29;100.00;101478.88;5067483;28;20176;-74
2021/01/08 01:34:30;;;;;;;44.40;10.37;;;;;;;7.27;100.00;101467.66;5065828;28;20181;-71
2021/01/08 01:36:56;;;;;;;44.40;11.90;;;;;;;7.42;100.00;101461.78;5053060;28;20683;-74
2021/01/08 01:39:21;;;;;;;43.67;17.67;;;;;;;7.43;100.00;101461.72;5053091;28;20172;-73
2021/01/08 01:41:47;;;;;;;44.17;13.30;;;;;;;7.36;100.00;101457.66;5058762;28;21055;-71
2021/01/08 01:44:12;;;;;;;42.97;10.47;;;;;;;7.36;100.00;101457.66;5072721;28;20202;-71
2021/01/08 01:46:38;;;;;;;46.23;13.50;;;;;;;7.32;100.00;101453.47;5069250;28;20549;-69
2021/01/08 01:49:04;;;;;;;44.97;12.80;;;;;;;7.35;100.00;101453.34;5052884;28;20141;-73
2021/01/08 01:51:30;;;;;;;43.83;10.40;;;;;;;7.39;100.00;101454.91;5056176;28;20210;-69
2021/01/08 01:53:55;;;;;;;42.50;10.17;;;;;;;7.54;100.00;101449.94;5073098;28;20843;-69
2021/01/08 01:56:21;;;;;;;45.73;10.70;;;;;;;7.41;100.00;101460.94;5057185;28;21026;-69
2021/01/08 01:58:46;;;;;;;44.07;9.53;;;;;;;7.45;100.00;101453.81;5064713;28;20649;-71
2021/01/08 02:01:12;;;;;;;44.00;10.80;;;;;;;7.53;100.00;101448.25;5067706;28;20760;-71
2021/01/08 02:03:55;;;;;;;45.10;13.13;;;;;;;7.40;100.00;101443.53;5052743;28;20531;-72
2021/01/08 02:06:27;;;;;;;43.97;10.37;;;;;;;7.38;100.00;101437.53;5066292;28;20183;-72
2021/01/08 02:09:00;;;;;;;45.53;11.33;;;;;;;7.44;100.00;101423.34;5071944;28;20390;-69
2021/01/08 02:11:28;;;;;;;43.07;11.07;;;;;;;7.41;100.00;101423.50;5058101;28;20445;-71
2021/01/08 02:14:05;;;;;;;44.20;11.93;;;;;;;7.46;100.00;101432.81;5070865;28;20426;-74
2021/01/08 02:16:33;;;;;;;42.70;9.37;;;;;;;7.51;100.00;101416.94;5062409;28;20825;-72
2021/01/08 02:19:00;;;;;;;43.50;11.00;;;;;;;7.44;100.00;101424.19;5051885;28;20765;-73
2021/01/08 02:21:31;;;;;;;43.67;10.70;;;;;;;7.51;100.00;101419.56;5051546;28;20396;-70
2021/01/08 02:24:08;;;;;;;45.00;11.70;;;;;;;7.51;100.00;101417.78;5054780;28;20407;-74
2021/01/08 02:26:33;;;;;;;46.03;12.77;;;;;;;7.47;100.00;101413.59;5052915;28;21010;-71
2021/01/08 02:29:00;;;;;;;43.87;9.30;;;;;;;7.48;100.00;101404.88;5052831;28;20428;-70
2021/01/08 02:31:26;;;;;;;43.57;10.40;;;;;;;7.45;100.00;101404.13;5064193;28;20172;-75
2021/01/08 02:33:53;;;;;;;45.57;13.07;;;;;;;7.45;100.00;101397.13;5072793;28;20495;-71
2021/01/08 02:36:19;;;;;;;43.50;10.97;;;;;;;7.41;100.00;101397.34;5072871;28;20156;-71
2021/01/08 02:38:50;;;;;;;43.40;12.43;;;;;;;7.40;100.00;101401.69;5072622;28;20436;-74
2021/01/08 02:41:18;;;;;;;43.27;10.93;;;;;;;7.41;100.00;101408.66;5072117;28;20218;-76
2021/01/08 02:43:45;;;;;;;43.63;9.40;;;;;;;7.51;100.00;101404.72;5052275;28;20776;-74
2021/01/08 02:46:11;;;;;;;42.67;9.67;;;;;;;7.46;100.00;101411.91;5060939;28;20429;-73
2021/01/08 02:48:37;;;;;;;44.03;10.80;;;;;;;7.42;100.00;101417.34;5059673;28;20913;-76
2021/01/08 02:51:03;;;;;;;44.70;12.70;;;;;;;7.42;100.00;101412.97;5052953;28;20183;-75
2021/01/08 02:53:31;;;;;;;44.13;10.43;;;;;;;7.44;100.00;101408.50;5052285;28;20234;-76
2021/01/08 02:56:01;;;;;;;43.93;9.20;;;;;;;7.47;100.00;101404.91;5065943;28;20427;-76
2021/01/08 02:58:29;;;;;;;44.20;10.60;;;;;;;7.41;100.00;101407.81;5071093;28;20383;-73
2021/01/08 03:00:56;;;;;;;43.90;10.00;;;;;;;7.37;100.00;101401.84;5071505;28;20401;-74
2021/01/08 03:03:25;;;;;;;43.83;10.20;;;;;;;7.46;100.00;101404.06;5057280;28;20491;-75
2021/01/08 03:05:51;;;;;;;43.47;10.60;;;;;;;7.56;100.00;101401.91;5052160;28;20394;-76
2021/01/08 03:08:17;;;;;;;43.80;12.87;;;;;;;7.55;100.00;101405.41;5055460;28;20410;-74
2021/01/08 03:10:43;;;;;;;43.47;11.27;;;;;;;7.52;100.00;101400.34;5071620;28;20156;-75
2021/01/08 03:13:09;;;;;;;45.43;10.70;;;;;;;7.53;100.00;101403.81;5072232;28;20781;-76
2021/01/08 03:15:35;;;;;;;46.20;11.43;;;;;;;7.31;100.00;101399.50;5071984;28;20251;-75
2021/01/08 03:18:01;;;;;;;43.40;10.57;;;;;;;7.35;100.00;101410.69;5068896;28;20417;-72
2021/01/08 03:20:26;;;;;;;44.13;12.17;;;;;;;7.25;100.00;101402.34;5071859;28;20232;-73
2021/01/08 03:22:52;;;;;;;43.00;12.50;;;;;;;7.24;100.00;101408.50;5051005;28;20203;-71
2021/01/08 03:25:18;;;;;;;42.10;14.77;;;;;;;7.14;100.00;101404.59;5050875;28;20291;-73
2021/01/08 03:27:43;;;;;;;41.90;10.70;;;;;;;7.16;100.00;101411.44;5057043;28;20154;-75
2021/01/08 03:30:10;;;;;;;41.07;9.67;;;;;;;7.11;100.00;101410.81;5051629;28;20215;-71
2021/01/08 03:32:36;;;;;;;41.50;11.27;;;;;;;6.99;100.00;101407.84;5051937;28;20611;-70
2021/01/08 03:35:05;;;;;;;39.40;11.13;;;;;;;6.91;100.00;101397.69;5051866;28;20447;-73
2021/01/08 03:37:30;;;;;;;39.67;11.27;;;;;;;6.97;100.00;101399.22;5051075;28;20897;-71
2021/01/08 03:39:56;;;;;;;40.27;13.10;;;;;;;6.83;100.00;101398.00;5050929;28;20453;-74
2021/01/08 03:42:21;;;;;;;38.50;9.97;;;;;;;6.84;100.00;101394.47;5062357;28;20160;-72
2021/01/08 03:44:47;;;;;;;37.63;8.67;;;;;;;6.91;100.00;101392.47;5070691;28;20513;-70
2021/01/08 03:47:12;;;;;;;38.73;13.17;;;;;;;6.95;100.00;101397.53;5060624;28;20183;-71
2021/01/08 03:49:38;;;;;;;40.87;13.50;;;;;;;6.91;100.00;101398.56;5051749;28;20635;-73
2021/01/08 03:52:08;;;;;;;39.10;12.20;;;;;;;6.83;100.00;101394.56;5051762;28;20153;-76
2021/01/08 03:54:35;;;;;;;39.40;12.17;;;;;;;6.81;100.00;101393.78;5051636;28;20197;-77
2021/01/08 03:57:01;;;;;;;39.80;13.43;;;;;;;6.81;100.00;101381.56;5051615;28;20436;-72
2021/01/08 03:59:26;;;;;;;38.67;10.30;;;;;;;6.78;100.00;101373.84;5051091;28;20427;-70
2021/01/08 04:01:52;;;;;;;37.53;10.00;;;;;;;6.82;100.00;101362.38;5053961;28;20410;-73
2021/01/08 04:04:18;;;;;;;36.90;8.83;;;;;;;6.75;100.00;101366.13;5061501;28;20615;-72
2021/01/08 04:06:44;;;;;;;38.30;11.83;;;;;;;6.70;100.00;101362.00;5051598;28;20157;-72
2021/01/08 04:09:09;;;;;;;37.23;10.90;;;;;;;6.72;100.00;101361.03;5051884;28;20165;-71
2021/01/08 04:11:35;;;;;;;36.30;9.53;;;;;;;6.68;100.00;101365.53;5067411;28;20199;-73
2021/01/08 04:14:00;;;;;;;34.80;6.97;;;;;;;6.67;100.00;101373.44;5053882;28;20184;-70
2021/01/08 04:16:35;;;;;;;35.20;7.90;;;;;;;6.68;100.00;101372.53;5035732;28;20180;-76
2021/01/08 04:19:01;;;;;;;34.57;6.80;;;;;;;6.70;100.00;101375.06;5070515;28;20217;-72
2021/01/08 04:21:27;;;;;;;34.77;7.77;;;;;;;6.68;100.00;101370.75;5061975;28;20407;-75
2021/01/08 04:23:53;;;;;;;35.23;7.77;;;;;;;6.70;100.00;101368.06;5053146;28;20771;-74
2021/01/08 04:26:18;;;;;;;34.87;8.30;;;;;;;6.74;100.00;101377.50;5060320;28;20575;-75
2021/01/08 04:28:44;;;;;;;34.67;7.37;;;;;;;6.75;100.00;101371.34;5059720;28;20188;-73
2021/01/08 04:31:10;;;;;;;37.03;9.70;;;;;;;6.71;100.00;101376.75;5055220;28;20172;-74
2021/01/08 04:33:36;;;;;;;35.50;8.03;;;;;;;6.70;100.00;101375.06;5057778;28;20185;-74
2021/01/08 04:36:02;;;;;;;36.17;8.10;;;;;;;6.72;100.00;101370.63;5067688;28;20164;-73
2021/01/08 04:38:27;;;;;;;36.03;7.13;;;;;;;6.67;100.00;101369.06;5067077;28;20395;-76
2021/01/08 04:40:53;;;;;;;34.57;7.93;;;;;;;6.73;100.00;101365.38;5074485;28;20402;-76
2021/01/08 04:43:19;;;;;;;35.10;8.10;;;;;;;6.74;100.00;101359.22;5074022;28;20163;-74
2021/01/08 04:45:44;;;;;;;35.67;8.53;;;;;;;6.68;100.00;101354.25;5074617;28;20140;-76
2021/01/08 04:48:13;;;;;;;34.97;7.50;;;;;;;6.76;100.00;101348.72;5066714;28;20409;-75
2021/01/08 04:50:41;;;;;;;35.00;8.27;;;;;;;6.79;100.00;101346.81;5073673;28;20145;-72
2021/01/08 04:53:08;;;;;;;35.77;8.20;;;;;;;6.74;100.00;101354.00;5073314;28;20410;-72
2021/01/08 04:55:35;;;;;;;37.27;9.60;;;;;;;6.73;100.00;101347.09;5067132;28;20437;-77
2021/01/08 04:58:02;;;;;;;35.87;8.50;;;;;;;6.72;100.00;101341.91;5074518;28;20810;-74
2021/01/08 05:00:27;;;;;;;35.10;8.30;;;;;;;6.74;100.00;101334.88;5065859;28;20605;-73
2021/01/08 05:02:53;;;;;;;37.23;9.73;;;;;;;6.75;100.00;101339.19;5056345;28;20412;-71
2021/01/08 05:05:20;;;;;;;35.40;8.50;;;;;;;6.76;100.00;101333.03;5054725;28;20607;-77
2021/01/08 05:07:46;;;;;;;35.40;8.50;;;;;;;6.75;100.00;101332.19;5055479;28;20164;-75
2021/01/08 05:10:12;;;;;;;35.60;8.00;;;;;;;6.71;100.00;101321.94;5053708;28;20455;-75
2021/01/08 05:12:42;;;;;;;36.33;8.60;;;;;;;6.78;100.00;101324.22;5054208;28;20396;-72
2021/01/08 05:15:12;;;;;;;35.30;9.20;;;;;;;6.80;100.00;101322.41;5070598;28;20196;-75
2021/01/08 05:17:42;;;;;;;35.83;9.00;;;;;;;6.73;100.00;101327.97;5074429;28;20383;-72
2021/01/08 05:20:08;;;;;;;34.40;8.33;;;;;;;6.68;100.00;101328.13;5073514;28;20548;-73
2021/01/08 05:22:34;;;;;;;36.77;8.77;;;;;;;6.71;100.00;101328.00;5057332;28;20902;-73
2021/01/08 05:25:04;;;;;;;34.83;9.23;;;;;;;6.73;100.00;101322.75;5053509;28;20399;-74
2021/01/08 05:27:29;;;;;;;34.87;9.17;;;;;;;6.76;100.00;101314.75;5062738;28;20681;-74
2021/01/08 05:29:55;;;;;;;34.13;8.23;;;;;;;6.77;100.00;101309.47;5058848;28;20446;-71
2021/01/08 05:32:23;;;;;;;36.97;12.83;;;;;;;6.81;100.00;101307.59;5064613;28;20203;-75
2021/01/08 05:34:49;;;;;;;34.20;7.73;;;;;;;6.85;100.00;101304.78;5070015;28;20188;-72
2021/01/08 05:37:15;;;;;;;36.07;12.90;;;;;;;6.85;100.00;101299.53;5069531;28;20410;-72
2021/01/08 05:39:41;;;;;;;35.53;9.00;;;;;;;6.86;100.00;101301.25;5072645;28;20159;-72
2021/01/08 05:42:07;;;;;;;34.83;8.40;;;;;;;6.82;100.00;101301.44;5073718;28;20414;-71
2021/01/08 05:44:34;;;;;;;36.70;12.20;;;;;;;6.81;100.00;101295.38;5071309;28;20199;-69
2021/01/08 05:47:01;;;;;;;38.90;10.93;;;;;;;6.78;100.00;101289.44;5073627;28;20774;-71
2021/01/08 05:49:28;;;;;;;36.60;11.00;;;;;;;6.74;100.00;101280.88;5073207;28;20395;-73
2021/01/08 05:51:54;;;;;;;36.93;10.00;;;;;;;6.67;100.00;101282.06;5073238;28;20781;-72
2021/01/08 05:54:20;;;;;;;36.00;8.70;;;;;;;6.67;100.00;101276.84;5072863;28;20458;-70
2021/01/08 05:56:46;;;;;;;35.00;7.90;;;;;;;6.71;100.00;101265.34;5073069;28;20391;-75
2021/01/08 05:59:11;;;;;;;34.50;8.40;;;;;;;6.77;100.00;101262.47;5072381;28;20528;-73
2021/01/08 06:01:39;;;;;;;34.83;8.77;;;;;;;6.73;100.00;101262.69;5058423;28;20623;-72
2021/01/08 06:04:06;;;;;;;38.30;11.50;;;;;;;6.72;100.00;101260.94;5053480;28;20162;-71
2021/01/08 06:06:42;;;;;;;36.37;10.60;;;;;;;6.77;100.00;101259.00;5059025;28;20746;-71
2021/01/08 06:09:11;;;;;;;38.00;11.20;;;;;;;6.77;100.00;101267.69;5072688;28;20461;-75
2021/01/08 06:11:37;;;;;;;37.03;11.60;;;;;;;6.70;100.00;101263.63;5072777;28;20403;-68
2021/01/08 06:14:06;;;;;;;36.60;9.00;;;;;;;6.82;100.00;101263.13;5073397;28;20764;-74
2021/01/08 06:16:37;;;;;;;38.07;11.13;;;;;;;6.91;100.00;101265.34;5073084;28;20401;-73
2021/01/08 06:19:03;;;;;;;37.10;9.27;;;;;;;6.83;100.00;101257.00;5068573;28;20901;-71
2021/01/08 06:21:42;;;;;;;41.40;18.03;;;;;;;6.83;100.00;101251.75;5068550;28;20410;-74
2021/01/08 06:24:24;;;;;;;37.80;12.13;;;;;;;6.84;100.00;101244.78;5067258;28;20404;-71
2021/01/08 06:26:50;;;;;;;35.97;9.80;;;;;;;6.93;100.00;101250.44;5052684;28;20447;-71
2021/01/08 06:29:18;;;;;;;38.30;12.93;;;;;;;6.88;100.00;101251.59;5035286;28;20420;-71
2021/01/08 06:31:49;;;;;;;38.10;12.40;;;;;;;6.94;100.00;101249.53;5052905;28;20415;-72
2021/01/08 06:34:28;;;;;;;42.33;15.40;;;;;;;6.90;100.00;101255.81;5055886;28;20876;-72
2021/01/08 06:37:06;;;;;;;38.33;14.10;;;;;;;6.97;100.00;101255.56;5057186;28;20486;-72
2021/01/08 06:39:39;;;;;;;37.83;12.80;;;;;;;6.93;100.00;101252.22;5071704;28;20455;-73
2021/01/08 06:42:05;;;;;;;38.27;11.93;;;;;;;6.94;100.00;101251.28;5066434;28;20494;-71
2021/01/08 06:44:32;;;;;;;37.87;11.53;;;;;;;6.98;100.00;101255.47;5065517;28;20414;-74
2021/01/08 06:47:00;;;;;;;38.00;10.47;;;;;;;7.02;100.00;101249.19;5061098;28;20897;-69
2021/01/08 06:49:26;;;;;;;38.33;11.10;;;;;;;6.98;100.00;101252.03;5061648;28;20403;-73
2021/01/08 06:51:52;;;;;;;38.20;10.73;;;;;;;7.03;100.00;101250.03;5053264;28;20483;-75
2021/01/08 06:54:17;;;;;;;40.90;15.83;;;;;;;7.00;100.00;101234.50;5062596;28;20644;-73
2021/01/08 06:56:44;;;;;;;37.80;8.00;;;;;;;7.04;100.00;101230.84;5072420;28;20210;-72
2021/01/08 06:59:11;;;;;;;37.80;10.80;;;;;;;7.04;100.00;101243.91;5071973;28;20717;-72
2021/01/08 07:01:53;;;;;;;38.20;11.70;;;;;;;7.11;100.00;101242.72;5051935;28;20402;-73
2021/01/08 07:04:21;;;;;;;43.63;15.10;;;;;;;7.12;100.00;101234.81;5053517;28;20419;-76
2021/01/08 07:06:47;;;;;;;37.03;7.90;;;;;;;7.18;100.00;101218.03;5070160;28;20396;-70
2021/01/08 07:09:13;;;;;;;37.33;8.77;;;;;;;7.19;100.00;101230.19;5060828;28;20424;-73
2021/01/08 07:11:40;;;;;;;38.33;8.70;;;;;;;7.12;100.00;101229.59;5057703;28;20943;-72
2021/01/08 07:14:11;;;;;;;38.70;12.03;;;;;;;7.24;100.00;101218.56;5057748;28;20492;-75
2021/01/08 07:16:44;;;;;;;37.10;8.70;;;;;;;7.19;100.00;101212.72;5059402;28;20775;-73
2021/01/08 07:19:11;;;;;;;37.63;8.10;;;;;;;7.19;100.00;101227.56;5064406;28;20406;-71
2021/01/08 07:21:51;;;;;;;37.03;9.40;;;;;;;7.20;100.00;101230.09;5058811;28;20403;-72
2021/01/08 07:24:19;;;;;;;41.27;12.80;;;;;;;7.25;100.00;101227.25;5055915;28;20407;-70
2021/01/08 07:26:46;;;;;;;38.43;10.10;;;;;;;7.17;100.00;101230.22;5060383;28;20976;-75
2021/01/08 07:29:12;;;;;;;37.90;10.20;;;;;;;7.18;100.00;101233.72;5054339;28;20914;-72
2021/01/08 07:31:39;;;;;;;37.43;11.47;;;;;;;7.20;100.00;101234.47;5056313;28;20521;-74
2021/01/08 07:34:08;;;;;;;37.50;10.07;;;;;;;7.22;100.00;101223.03;5052939;28;20439;-74
2021/01/08 07:36:34;;;;;;;36.17;7.90;;;;;;;7.38;100.00;101225.78;5054561;28;20861;-74
2021/01/08 07:39:01;;;;;;;36.83;11.60;;;;;;;7.35;100.00;101236.41;5053044;28;20415;-72
2021/01/08 07:41:36;;;;;;;37.63;10.33;;;;;;;7.38;100.00;101233.63;5070760;28;20446;-76
2021/01/08 07:44:03;;;;;;;37.30;10.50;;;;;;;7.41;100.00;101237.91;5071279;28;20401;-74
2021/01/08 07:46:32;;;;;;;38.00;11.80;;;;;;;7.36;100.00;101232.88;5043496;28;20521;-76
2021/01/08 07:49:00;;;;;;;37.57;13.33;;;;;;;7.38;100.00;101224.94;5059925;28;20468;-74
2021/01/08 07:51:45;;;;;;;37.10;10.40;;;;;;;7.42;100.00;101229.13;5059315;28;20407;-71
2021/01/08 07:54:11;;;;;;;37.57;9.80;;;;;;;7.41;100.00;101217.00;5067170;28;20493;-74
2021/01/08 07:57:04;;;;;;;36.47;10.80;;;;;;;7.36;100.00;101221.56;5069847;28;20932;-75
2021/01/08 07:59:30;;;;;;;37.83;11.20;;;;;;;7.51;100.00;101205.19;5059082;28;20169;-73
2021/01/08 08:01:55;;;;;;;37.23;10.33;;;;;;;7.44;100.00;101195.91;5064495;28;20418;-76
2021/01/08 08:04:25;;;;;;;37.07;11.07;;;;;;;7.44;100.00;101188.91;5069741;28;20210;-74
2021/01/08 08:06:52;;;;;;;36.00;8.47;;;;;;;7.48;100.00;101184.38;5059772;28;20481;-74
2021/01/08 08:09:18;;;;;;;35.10;8.43;;;;;;;7.45;100.00;101176.69;5071489;28;20391;-76
2021/01/08 08:11:44;;;;;;;35.17;9.20;;;;;;;7.46;100.00;101175.78;5057861;28;20394;-73
2021/01/08 08:14:14;;;;;;;38.93;15.20;;;;;;;7.46;100.00;101176.63;5070871;28;20438;-74
2021/01/08 08:16:41;;;;;;;36.13;8.60;;;;;;;7.60;100.00;101169.91;5055280;28;20482;-77
2021/01/08 08:19:08;;;;;;;35.53;8.00;;;;;;;7.46;100.00;101162.72;5067903;28;20403;-74
2021/01/08 08:21:36;;;;;;;35.87;10.20;;;;;;;7.48;100.00;101166.97;5070874;28;20760;-77
2021/01/08 08:24:04;;;;;;;34.57;8.20;;;;;;;7.44;100.00;101165.41;5058846;28;20414;-76
2021/01/08 08:26:32;;;;;;;36.43;9.00;;;;;;;7.44;100.00;101162.78;5057702;28;21022;-74
2021/01/08 08:29:00;;;;;;;34.83;8.80;;;;;;;7.44;100.00;101151.47;5070993;28;20753;-76
2021/01/08 08:31:30;;;;;;;35.93;10.07;;;;;;;7.49;100.00;101146.91;5071033;28;20421;-76
2021/01/08 08:33:57;;;;;;;35.43;8.40;;;;;;;7.55;100.00;101136.13;5055033;28;20446;-76
2021/01/08 08:36:27;;;;;;;35.10;8.60;;;;;;;7.61;100.00;101138.44;5050793;28;20406;-72
2021/01/08 08:39:06;;;;;;;37.97;12.37;;;;;;;7.49;100.00;101123.38;5069493;28;20399;-74
2021/01/08 08:41:40;;;;;;;35.30;9.30;;;;;;;7.51;100.00;101114.50;5070575;28;20759;-74
2021/01/08 08:44:08;;;;;;;37.37;11.80;;;;;;;7.58;100.00;101117.69;5069134;28;20414;-73
2021/01/08 08:46:47;;;;;;;35.27;8.43;;;;;;;7.62;100.00;101114.00;5061291;28;20415;-74
2021/01/08 08:49:18;;;;;;;36.77;8.50;;;;;;;7.67;100.00;101117.25;5067853;28;20402;-77
2021/01/08 08:51:46;;;;;;;35.77;8.70;;;;;;;7.69;100.00;101111.94;5052974;28;20406;-73
2021/01/08 08:54:12;;;;;;;34.20;8.23;;;;;;;7.75;100.00;101111.63;5058781;28;20495;-75
2021/01/08 08:56:54;;;;;;;34.83;8.10;;;;;;;7.86;100.00;101103.25;5050431;28;20395;-74
2021/01/08 08:59:42;;;;;;;35.87;9.80;;;;;;;7.87;100.00;101100.56;5063072;28;20808;-73
2021/01/08 09:02:22;;;;;;;35.10;9.20;;;;;;;7.86;100.00;101088.44;5050793;28;20396;-76
2021/01/08 09:05:04;;;;;;;35.77;10.47;;;;;;;7.79;100.00;101079.19;5055058;28;20461;-75
2021/01/08 09:07:36;;;;;;;36.37;11.00;;;;;;;7.82;100.00;101076.41;5067286;28;20407;-75
2021/01/08 09:10:08;;;;;;;35.53;8.60;;;;;;;7.86;100.00;101067.50;5040152;28;20765;-76
2021/01/08 09:12:46;;;;;;;35.77;9.20;;;;;;;8.01;100.00;101048.41;5055158;28;20402;-78
2021/01/08 09:15:25;;;;;;;36.17;10.53;;;;;;;8.01;100.00;101047.53;5073648;28;20514;-73
2021/01/08 09:18:17;;;;;;;42.13;9.60;;;;;;;8.00;100.00;101051.06;5073834;28;20391;-73
2021/01/08 09:20:54;;;;;;;36.03;9.10;;;;;;;8.01;100.00;101048.41;5025900;28;20852;-74
2021/01/08 09:23:20;;;;;;;35.67;10.73;;;;;;;7.95;100.00;101037.41;5054068;28;20485;-73
2021/01/08 09:25:46;;;;;;;35.47;8.60;;;;;;;7.95;100.00;101038.25;5056012;28;20462;-70
2021/01/08 09:28:17;;;;;;;39.53;11.23;;;;;;;7.98;100.00;101038.06;5056022;28;20411;-75
2021/01/08 09:30:52;;;;;;;38.50;11.03;;;;;;;7.99;100.00;101023.22;5067711;28;20176;-74
2021/01/08 09:33:18;;;;;;;35.60;8.80;;;;;;;8.04;100.00;101006.38;5053091;28;20473;-73
2021/01/08 09:35:50;;;;;;;34.03;8.80;;;;;;;8.13;100.00;101005.03;5066642;28;20407;-74
2021/01/08 09:38:23;;;;;;;35.97;10.13;;;;;;;8.23;100.00;100994.94;5070290;28;20179;-74
2021/01/08 09:40:49;;;;;;;39.10;11.40;;;;;;;8.31;100.00;100983.16;5065703;28;20406;-70
2021/01/08 09:43:16;;;;;;;37.90;10.00;;;;;;;8.38;100.00;100973.19;5053444;28;20402;-76
2021/01/08 09:45:42;;;;;;;36.93;10.90;;;;;;;8.41;100.00;100962.59;5072123;28;20164;-71
2021/01/08 09:48:22;;;;;;;35.47;8.87;;;;;;;8.48;100.00;100957.84;5073629;28;20409;-73
2021/01/08 09:50:59;;;;;;;39.67;9.00;;;;;;;8.53;100.00;100958.44;5070349;28;20403;-71
2021/01/08 09:53:24;;;;;;;36.40;10.63;;;;;;;8.61;100.00;100935.28;5057051;28;20442;-73
2021/01/08 09:55:50;;;;;;;37.13;11.80;;;;;;;8.59;100.00;100932.75;5055720;28;20399;-71
2021/01/08 09:58:16;;;;;;;36.67;10.33;;;;;;;8.60;100.00;100930.97;5072801;28;20144;-72
2021/01/08 10:00:41;;;;;;;37.73;9.90;;;;;;;8.61;100.00;100937.91;5073064;28;20198;-77
2021/01/08 10:03:17;;;;;;;38.10;11.00;;;;;;;8.59;100.00;100934.53;5072732;28;20175;-72
2021/01/08 10:05:43;;;;;;;38.83;13.33;;;;;;;8.64;100.00;100926.44;5072875;28;20159;-74
2021/01/08 10:08:20;;;;;;;40.50;10.37;;;;;;;8.73;100.00;100915.44;5072545;28;20383;-76
2021/01/08 10:10:47;;;;;;;37.13;10.90;;;;;;;8.74;100.00;100906.66;5071801;28;20172;-70
2021/01/08 10:13:23;;;;;;;40.07;15.03;;;;;;;8.71;100.00;100902.44;5060788;28;20419;-76
2021/01/08 10:15:51;;;;;;;37.73;11.33;;;;;;;8.81;100.00;100889.66;5072673;28;20884;-71
2021/01/08 10:18:22;;;;;;;41.03;12.13;;;;;;;8.88;100.00;100889.22;5060189;28;20396;-75
2021/01/08 10:21:05;;;;;;;49.47;13.10;;;;;;;9.03;100.00;100890.09;5071559;28;20463;-75
2021/01/08 10:23:37;;;;;;;39.20;10.93;;;;;;;9.03;100.00;100876.16;5072384;28;20375;-71
2021/01/08 10:26:11;;;;;;;37.30;10.87;;;;;;;9.11;100.00;100874.78;5062614;28;20458;-73
2021/01/08 10:28:54;;;;;;;39.03;12.47;;;;;;;9.25;100.00;100879.22;5062508;28;20925;-78
2021/01/08 10:31:23;;;;;;;40.30;12.00;;;;;;;9.35;100.00;100879.50;5055745;28;20788;-71
2021/01/08 10:33:50;;;;;;;39.67;12.77;;;;;;;9.32;100.00;100875.28;5072167;28;20470;-75
2021/01/08 10:36:15;;;;;;;41.40;10.40;;;;;;;9.27;100.00;100858.13;5070184;28;20403;-76
2021/01/08 10:38:43;;;;;;;38.63;11.27;;;;;;;9.30;100.00;100853.56;5067134;28;20437;-75
2021/01/08 10:41:08;;;;;;;38.60;10.90;;;;;;;9.35;100.00;100851.50;5052771;28;20517;-73
2021/01/08 10:43:34;;;;;;;39.20;11.20;;;;;;;9.50;100.00;100848.91;5061019;28;20407;-75
2021/01/08 10:46:02;;;;;;;41.10;13.13;;;;;;;9.43;100.00;100840.56;5059176;28;20965;-75
2021/01/08 10:48:28;;;;;;;44.07;13.50;;;;;;;9.41;100.00;100842.44;5068641;28;20410;-73
2021/01/08 10:50:54;;;;;;;42.70;12.17;;;;;;;9.52;100.00;100824.28;5057873;28;20404;-74
2021/01/08 10:53:19;;;;;;;40.97;12.97;;;;;;;9.56;100.00;100820.53;5057965;28;20473;-75
2021/01/08 10:55:46;;;;;;;47.20;15.97;;;;;;;9.64;100.00;100820.03;5071521;28;20184;-72
2021/01/08 10:58:15;;;;;;;41.50;13.90;;;;;;;9.66;100.00;100813.75;5067568;28;20160;-74
2021/01/08 11:00:40;;;;;;;43.83;19.83;;;;;;;9.64;100.00;100802.53;5057708;28;20426;-76
2021/01/08 11:03:06;;;;;;;41.50;15.80;;;;;;;9.72;100.00;100802.06;5061319;28;20581;-73
2021/01/08 11:05:32;;;;;;;49.27;21.43;;;;;;;9.67;100.00;100806.72;5066475;28;20173;-74
2021/01/08 11:07:57;;;;;;;51.73;20.90;;;;;;;9.78;100.00;100806.09;5068419;28;20619;-73
2021/01/08 11:10:23;;;;;;;47.37;19.93;;;;;;;9.80;100.00;100796.31;5070791;28;20172;-76
2021/01/08 11:12:48;;;;;;;45.87;19.00;;;;;;;9.83;100.00;100799.63;5059161;28;20153;-75
2021/01/08 11:15:14;;;;;;;44.00;16.20;;;;;;;9.74;100.00;100806.25;5051262;28;20193;-73
2021/01/08 11:17:39;;;;;;;46.27;19.37;;;;;;;9.87;100.00;100810.75;5056934;28;20641;-75